Nearby METAR Reports

 

KIAH - dist=7 mi (11 km), dir=SSE, Houston/Intnl, Texas, USA elev=36
Updated: Sat, 16-Dec-2017 1:53pm CST
Overcast
Overcast
 Wind from ESE
Wind: ESE 15 mph , 24 km/h
Temperature: 59°F , 15°C
Dew Point: 36°F , 2°C
Humidity: 42%
Barometer: 30.09 inHg , 1019 hPa
Clouds: Overcast
Visibility: 10 miles , 16 km
Cloud details: Few Clouds 5000 ft
Partly cloudy 7000 ft
Mostly cloudy 9000 ft
Mostly cloudy 18000 ft
Overcast 25000 ft
2017/12/16 19:53 KIAH 161953Z 11013KT 10SM FEW050 SCT070 BKN090 BKN180 OVC250 15/02 A3009 RMK AO2 SLP190 T01500017
KDWH - dist=10 mi (16 km), dir=WSW, Houston/Dw Hooks, Texas, USA elev=46
Updated: Sat, 16-Dec-2017 1:53pm CST
Overcast
Overcast
 Wind from E
Wind: E 8 mph , 13 km/h
Temperature: 57°F , 14°C
Dew Point: 36°F , 2°C
Humidity: 44%
Barometer: 30.08 inHg , 1018.6 hPa
Clouds: Overcast
Visibility: 10 miles , 16 km
Cloud details: Overcast 5500 ft
2017/12/16 19:53 KDWH 161953Z 10007KT 10SM OVC055 14/02 A3008 RMK AO2 RAB1854E06 SLP186 P0000 T01390017
 
KCXO - dist=17 mi (28 km), dir=N, Conroe, Texas, USA elev=75
Updated: Sat, 16-Dec-2017 1:53pm CST
Overcast
Overcast
 Wind from calm
Wind: Calm
Temperature: 52°F , 11°C
Dew Point: 43°F , 6°C
Humidity: 72%
Barometer: 30.10 inHg , 1019.3 hPa
Clouds: Overcast
Visibility: 10 miles , 16 km
Cloud details: Mostly cloudy 7000 ft
Overcast 12000 ft
2017/12/16 19:53 KCXO 161953Z 00000KT 10SM BKN070 OVC120 11/06 A3010 RMK AO2 RAB15E31 SLP192 P0000 T01110056
KMCJ - dist=26 mi (43 km), dir=S, Houston/Univ, Texas, USA elev=69
Updated: Sat, 16-Dec-2017 1:15pm CST
Mostly cloudy
Mostly cloudy
 Wind from E
Wind: E 17 mph , 28 km/h, Gust: 23 mph , 37 km/h
Temperature: 59°F , 15°C
Dew Point: 36°F , 2°C
Humidity: 42%
Barometer: 30.09 inHg , 1019 hPa
Clouds: Mostly cloudy
Visibility: 10 miles , 16 km
Cloud details: Partly cloudy 7000 ft
Mostly cloudy 8500 ft
2017/12/16 19:15 KMCJ 161915Z AUTO 09015G20KT 10SM SCT070 BKN085 15/02 A3009 RMK A01
 
K6R3 - dist=29 mi (47 km), dir=NE, Cleveland Muni, Texas, USA elev=46
Updated: Sat, 16-Dec-2017 2:15pm CST
Mostly cloudy
Mostly cloudy
 Wind from SE
Wind: SE 3 mph , 6 km/h
Temperature: 57°F , 14°C
Dew Point: 32°F , 0°C
Humidity: 39%
Barometer: 30.10 inHg , 1019.3 hPa
Clouds: Mostly cloudy
Visibility: 7 miles , 11 km
Cloud details: Mostly cloudy 8500 ft
Mostly cloudy 12000 ft
2017/12/16 20:15 K6R3 162015Z AUTO 14003KT 7SM BKN085 BKN120 14/00 A3010 RMK AO2 T01440000
KHOU - dist=33 mi (53 km), dir=SSE, Houston/Hobby, Texas, USA elev=36
Updated: Sat, 16-Dec-2017 1:53pm CST
Overcast
Overcast
 Wind from ESE
Wind: ESE 13 mph , 20 km/h, Gust: 21 mph , 33 km/h
Temperature: 59°F , 15°C
Dew Point: 36°F , 2°C
Humidity: 42%
Barometer: 30.08 inHg , 1018.6 hPa
Clouds: Overcast
Visibility: 10 miles , 16 km
Cloud details: Partly cloudy 6000 ft
Mostly cloudy 9500 ft
Overcast 25000 ft
2017/12/16 19:53 KHOU 161953Z 11011G18KT 10SM SCT060 BKN095 OVC250 15/02 A3008 RMK AO2 SLP190 T01500022
 
KSGR - dist=37 mi (59 km), dir=SSW, Houston/Sugar La, Texas, USA elev=2
Updated: Sat, 16-Dec-2017 1:53pm CST
Overcast
Overcast
 Wind from E
Wind: E 12 mph , 19 km/h
Temperature: 59°F , 15°C
Dew Point: 39°F , 4°C
Humidity: 48%
Barometer: 30.06 inHg , 1017.9 hPa
Clouds: Overcast
Visibility: 10 miles , 16 km
Cloud details: Partly cloudy 5500 ft
Overcast 9000 ft
2017/12/16 19:53 KSGR 161953Z 10010KT 10SM SCT055 OVC090 15/04 A3006 RMK AO2 SLP180 T01500039
KTME - dist=37 mi (59 km), dir=SW, Houston Exec, Texas, USA elev=51
Updated: Thu, 07-Dec-2017 6:15am CST
NOT Current
Light rain
Light rain
 Wind from NE
Wind: NE 10 mph , 17 km/h
Temperature: 41°F , 5°C
Wind Chill: 35°F , 2°C
Dew Point: 39°F , 4°C
Humidity: 93%
Barometer: 30.31 inHg , 1026.4 hPa
Summary: Light rain
Visibility: 7 miles , 11 km
2017/12/07 12:15 KTME 071215Z AUTO 05009KT 7SM -RA 05/04 A3031 RMK AO2
 
KEFD - dist=37 mi (60 km), dir=SSE, Houston/Ellingto, Texas, USA elev=10
Updated: Sat, 16-Dec-2017 1:50pm CST
Overcast
Overcast
 Wind from ESE
Wind: ESE 14 mph , 22 km/h
Temperature: 57°F , 14°C
Dew Point: 39°F , 4°C
Humidity: 51%
Barometer: 30.11 inHg , 1019.6 hPa
Clouds: Overcast
Visibility: 10 miles , 16 km
Cloud details: Mostly cloudy 10000 ft
Overcast 25000 ft
2017/12/16 19:50 KEFD 161950Z 12012KT 10SM BKN100 OVC250 14/04 A3011
KAXH - dist=41 mi (65 km), dir=S, Houston/Southwst, Texas, USA elev=21
Updated: Sat, 16-Dec-2017 2:15pm CST
Overcast
Overcast
 Wind from E
Wind: E 12 mph , 19 km/h, Gust: 16 mph , 26 km/h
Temperature: 57°F , 14°C
Dew Point: 39°F , 4°C
Humidity: 51%
Barometer: 30.08 inHg , 1018.6 hPa
Clouds: Overcast
Visibility: 10 miles , 16 km
Cloud details: Partly cloudy 4600 ft
Overcast 9000 ft
2017/12/16 20:15 KAXH 162015Z AUTO 10010G14KT 10SM SCT046 OVC090 14/04 A3008 RMK AO2 T01400040
 
KLVJ - dist=41 mi (66 km), dir=SSE, Houston, Texas, USA elev=12
Updated: Sat, 16-Dec-2017 1:53pm CST
Overcast
Overcast
 Wind from ESE
Wind: ESE 14 mph , 22 km/h
Temperature: 57°F , 14°C
Dew Point: 43°F , 6°C
Humidity: 59%
Barometer: 30.10 inHg , 1019.3 hPa
Clouds: Overcast
Visibility: 10 miles , 16 km
Cloud details: Few Clouds 5000 ft
Partly cloudy 5500 ft
Overcast 9500 ft
2017/12/16 19:53 KLVJ 161953Z AUTO 11012KT 10SM FEW050 SCT055 OVC095 14/06 A3010 RMK AO2 SLP191 T01440061
KUTS - dist=46 mi (75 km), dir=NNW, Huntsville, Texas, USA elev=104
Updated: Sat, 16-Dec-2017 1:53pm CST
Overcast
Overcast
 Wind from varies
Wind: varies 5 mph , 7 km/h
Temperature: 52°F , 11°C
Dew Point: 37°F , 3°C
Humidity: 58%
Barometer: 30.10 inHg , 1019.3 hPa
Clouds: Overcast
Visibility: 10 miles , 16 km
Cloud details: Few Clouds 5500 ft
Mostly cloudy 7000 ft
Overcast 11000 ft
2017/12/16 19:53 KUTS 161953Z AUTO VRB04KT 10SM FEW055 BKN070 OVC110 11/03 A3010 RMK AO2 SLP192 T01110033